Time;durP1;ratioP1;P1;durP2;ratioP2;P2;SDS_P1;SDS_P2;PMS_P1;PMS_P2;Temp;Humidity;BMP_temperature;BMP_pressure;BME280_temperature;BME280_humidity;BME280_pressure;Samples;Min_cycle;Max_cycle;Signal;HPM_P1;HPM_P2
2023/08/22 00:00:41;;;;;;;3.90;3.50;;;18.30;99.90;;;;;;5135423;27;20062;-74
2023/08/22 00:03:06;;;;;;;4.03;3.55;;;18.30;99.90;;;;;;5135287;27;20043;-73
2023/08/22 00:05:32;;;;;;;4.78;3.25;;;18.30;99.90;;;;;;5135557;27;20405;-73
2023/08/22 00:07:59;;;;;;;4.55;2.97;;;18.30;99.90;;;;;;5135998;27;20364;-73
2023/08/22 00:10:26;;;;;;;4.03;2.70;;;18.30;99.90;;;;;;5135205;27;20055;-73
2023/08/22 00:12:52;;;;;;;4.53;3.20;;;18.30;99.90;;;;;;5135215;27;20053;-73
2023/08/22 00:15:18;;;;;;;4.63;3.08;;;18.20;99.90;;;;;;5135271;27;20051;-73
2023/08/22 00:17:44;;;;;;;5.47;3.97;;;18.30;99.90;;;;;;5135061;27;20448;-73
2023/08/22 00:20:11;;;;;;;7.15;4.30;;;18.30;99.90;;;;;;5134966;27;20035;-73
2023/08/22 00:22:37;;;;;;;7.50;4.20;;;18.30;99.90;;;;;;5135214;27;20382;-74
2023/08/22 00:25:07;;;;;;;6.40;4.78;;;18.30;99.90;;;;;;5134953;27;20054;-74
2023/08/22 00:27:34;;;;;;;4.82;3.70;;;18.30;99.90;;;;;;5134790;27;20043;-74
2023/08/22 00:29:59;;;;;;;5.78;4.65;;;18.30;99.90;;;;;;5135082;27;20402;-74
2023/08/22 00:32:25;;;;;;;6.18;3.33;;;18.30;99.90;;;;;;5116691;27;20047;-73
2023/08/22 00:34:51;;;;;;;3.30;2.58;;;18.30;99.90;;;;;;5134824;27;20375;-74
2023/08/22 00:37:18;;;;;;;3.63;2.88;;;18.40;99.90;;;;;;5134712;27;20047;-73
2023/08/22 00:39:44;;;;;;;4.68;2.95;;;18.40;99.90;;;;;;5134660;27;20047;-73
2023/08/22 00:42:09;;;;;;;3.03;2.58;;;18.40;99.90;;;;;;5134462;27;20463;-73
2023/08/22 00:44:35;;;;;;;4.82;4.25;;;16.80;99.90;;;;;;5134958;27;20054;-73
2023/08/22 00:47:01;;;;;;;5.47;4.32;;;18.30;99.90;;;;;;5134954;27;20075;-76
2023/08/22 00:49:26;;;;;;;7.25;5.28;;;18.30;99.90;;;;;;5135106;27;20111;-74
2023/08/22 00:51:53;;;;;;;5.43;4.60;;;18.30;99.90;;;;;;5134421;27;20043;-73
2023/08/22 00:54:19;;;;;;;4.85;4.00;;;18.30;99.90;;;;;;5134276;27;20089;-73
2023/08/22 00:56:46;;;;;;;7.22;4.43;;;18.20;99.90;;;;;;5116424;27;20500;-72
2023/08/22 00:59:12;;;;;;;8.10;4.05;;;18.20;99.90;;;;;;5134525;27;20541;-74
2023/08/22 01:01:38;;;;;;;7.95;4.75;;;18.30;99.90;;;;;;5134562;27;20071;-73
2023/08/22 01:04:04;;;;;;;6.25;5.18;;;18.20;99.90;;;;;;5134393;27;20515;-73
2023/08/22 01:06:41;;;;;;;7.28;4.90;;;18.30;99.90;;;;;;5134579;27;20043;-75
2023/08/22 01:09:18;;;;;;;7.28;4.85;;;18.20;99.90;;;;;;5134543;27;20176;-76
2023/08/22 01:11:49;;;;;;;6.00;4.68;;;18.20;99.90;;;;;;5134601;27;20058;-76
2023/08/22 01:14:20;;;;;;;6.78;4.53;;;18.20;99.90;;;;;;5134101;27;20054;-73
2023/08/22 01:16:47;;;;;;;7.43;5.43;;;18.20;99.90;;;;;;5134063;27;20102;-74
2023/08/22 01:19:13;;;;;;;8.63;5.75;;;18.10;99.90;;;;;;5134220;27;20063;-74
2023/08/22 01:21:50;;;;;;;7.82;5.35;;;18.10;99.90;;;;;;5133867;27;20080;-73
2023/08/22 01:24:16;;;;;;;6.35;5.03;;;16.70;99.90;;;;;;5134208;27;20080;-73
2023/08/22 01:26:44;;;;;;;5.47;4.40;;;18.10;99.90;;;;;;5133890;27;20049;-73
2023/08/22 01:29:14;;;;;;;8.50;5.40;;;18.10;99.90;;;;;;5115906;27;20076;-73
2023/08/22 01:31:51;;;;;;;7.43;5.05;;;18.10;99.90;;;;;;5134356;27;20091;-74
2023/08/22 01:34:25;;;;;;;6.63;5.35;;;18.10;99.90;;;;;;5133603;27;20486;-74
2023/08/22 01:36:54;;;;;;;7.25;4.78;;;18.10;99.90;;;;;;5115531;27;20047;-73
2023/08/22 01:39:23;;;;;;;6.45;5.30;;;18.10;99.90;;;;;;5133678;27;20042;-74
2023/08/22 01:41:49;;;;;;;7.85;5.45;;;18.10;99.90;;;;;;5133536;27;20055;-73
2023/08/22 01:44:15;;;;;;;7.35;5.07;;;18.10;99.90;;;;;;5133710;27;20050;-74
2023/08/22 01:46:41;;;;;;;6.18;5.18;;;18.10;99.90;;;;;;5133550;27;20035;-74
2023/08/22 01:49:06;;;;;;;8.43;5.65;;;18.10;99.90;;;;;;5133557;27;20039;-73
2023/08/22 01:51:32;;;;;;;6.68;5.32;;;18.10;99.90;;;;;;5133793;28;20039;-73
2023/08/22 01:53:58;;;;;;;10.57;5.30;;;18.10;99.90;;;;;;5115405;28;20510;-74
2023/08/22 01:56:24;;;;;;;7.43;5.28;;;18.10;99.90;;;;;;5134034;28;20082;-75
2023/08/22 01:58:50;;;;;;;6.68;5.22;;;18.10;99.90;;;;;;5133441;28;20050;-74
2023/08/22 02:01:15;;;;;;;6.70;5.63;;;18.10;99.90;;;;;;5133353;28;20047;-73
2023/08/22 02:03:42;;;;;;;7.65;6.40;;;18.10;99.90;;;;;;5115066;28;20070;-74
2023/08/22 02:06:08;;;;;;;8.07;6.22;;;18.10;99.90;;;;;;5133434;28;20051;-73
2023/08/22 02:08:34;;;;;;;7.78;5.78;;;18.00;99.90;;;;;;5133380;28;20071;-74
2023/08/22 02:11:00;;;;;;;5.88;4.82;;;18.00;99.90;;;;;;5133984;28;20050;-73
2023/08/22 02:13:25;;;;;;;8.02;5.40;;;18.00;99.90;;;;;;5132949;28;20115;-73
2023/08/22 02:15:51;;;;;;;8.10;5.65;;;18.00;99.90;;;;;;5133680;28;20042;-73
2023/08/22 02:18:17;;;;;;;6.32;4.82;;;18.00;99.90;;;;;;5133113;28;20044;-73
2023/08/22 02:20:42;;;;;;;8.32;6.13;;;18.00;99.90;;;;;;5133434;28;20099;-73
2023/08/22 02:23:09;;;;;;;6.75;5.38;;;18.00;99.90;;;;;;5133779;28;20337;-74
2023/08/22 02:25:35;;;;;;;6.70;5.57;;;17.90;99.90;;;;;;5132850;28;20051;-74
2023/08/22 02:28:02;;;;;;;6.20;4.95;;;17.90;99.90;;;;;;5133107;28;20069;-73
2023/08/22 02:30:27;;;;;;;7.28;6.03;;;17.80;99.90;;;;;;5133245;28;20048;-74
2023/08/22 02:32:53;;;;;;;8.02;6.32;;;17.80;99.90;;;;;;5133395;28;20355;-73
2023/08/22 02:35:22;;;;;;;6.80;5.38;;;17.80;99.90;;;;;;5133477;28;20057;-73
2023/08/22 02:37:49;;;;;;;5.72;5.18;;;17.70;99.90;;;;;;5133159;28;20051;-75
2023/08/22 02:40:14;;;;;;;6.82;5.57;;;17.60;99.90;;;;;;5114572;28;20482;-73
2023/08/22 02:42:40;;;;;;;6.57;5.43;;;17.60;99.90;;;;;;5133025;28;20122;-73
2023/08/22 02:45:06;;;;;;;5.80;4.82;;;17.50;99.90;;;;;;5133057;28;20126;-74
2023/08/22 02:47:32;;;;;;;6.57;4.78;;;17.40;99.90;;;;;;5132862;28;20046;-76
2023/08/22 02:49:58;;;;;;;6.32;5.70;;;17.50;99.90;;;;;;5133003;28;20039;-74
2023/08/22 02:52:27;;;;;;;7.47;5.45;;;17.40;99.90;;;;;;5132879;28;20610;-76
2023/08/22 02:54:53;;;;;;;9.88;5.80;;;17.40;99.90;;;;;;5115330;28;20043;-73
2023/08/22 02:57:18;;;;;;;6.97;5.28;;;17.40;99.90;;;;;;5132766;28;20130;-73
2023/08/22 02:59:44;;;;;;;8.93;6.22;;;17.40;99.90;;;;;;5114825;28;20096;-74
2023/08/22 03:02:10;;;;;;;7.80;6.05;;;17.40;99.90;;;;;;5132780;28;20086;-74
2023/08/22 03:04:38;;;;;;;8.15;5.30;;;17.40;99.90;;;;;;5132806;27;20039;-75
2023/08/22 03:07:05;;;;;;;8.63;5.57;;;17.40;99.90;;;;;;5136314;27;20088;-74
2023/08/22 03:09:31;;;;;;;7.88;5.88;;;17.30;99.90;;;;;;5118230;27;20043;-74
2023/08/22 03:11:57;;;;;;;7.05;6.03;;;17.30;99.90;;;;;;5136222;27;20043;-73
2023/08/22 03:14:24;;;;;;;7.88;6.40;;;17.30;99.90;;;;;;5136688;27;20043;-75
2023/08/22 03:16:50;;;;;;;7.13;5.38;;;17.20;99.90;;;;;;5136220;27;20119;-75
2023/08/22 03:19:15;;;;;;;7.15;5.57;;;17.10;99.90;;;;;;5135951;27;20096;-74
2023/08/22 03:21:41;;;;;;;8.55;5.38;;;17.10;99.90;;;;;;5136164;27;20047;-74
2023/08/22 03:24:07;;;;;;;10.75;6.10;;;17.10;99.90;;;;;;5136706;27;20074;-74
2023/08/22 03:26:32;;;;;;;7.35;5.03;;;17.00;99.90;;;;;;5136134;27;20513;-73
2023/08/22 03:28:58;;;;;;;7.40;6.30;;;17.00;99.90;;;;;;5135999;27;20520;-73
2023/08/22 03:31:26;;;;;;;7.93;5.95;;;17.00;99.90;;;;;;5135979;27;20039;-74
2023/08/22 03:33:52;;;;;;;7.70;4.97;;;16.90;99.90;;;;;;5135793;27;20118;-73
2023/08/22 03:36:18;;;;;;;7.18;5.85;;;16.90;99.90;;;;;;5136132;27;20047;-76
2023/08/22 03:38:44;;;;;;;6.80;4.90;;;16.80;99.90;;;;;;5117196;27;20104;-74
2023/08/22 03:41:09;;;;;;;6.57;5.00;;;16.80;99.90;;;;;;5100526;27;20046;-74
2023/08/22 03:43:35;;;;;;;4.32;3.92;;;16.70;99.90;;;;;;5135836;27;20050;-74
2023/08/22 03:46:01;;;;;;;6.90;5.53;;;16.60;99.90;;;;;;5136569;27;20039;-73
2023/08/22 03:48:27;;;;;;;6.93;5.32;;;16.60;99.90;;;;;;5136230;27;20043;-74
2023/08/22 03:50:52;;;;;;;7.60;5.93;;;16.60;99.90;;;;;;5136102;27;20054;-74
2023/08/22 03:53:18;;;;;;;5.95;4.97;;;16.50;99.90;;;;;;5135535;27;20092;-72
2023/08/22 03:55:44;;;;;;;7.20;4.88;;;16.40;99.90;;;;;;5117489;27;20047;-74
2023/08/22 03:58:10;;;;;;;7.43;5.60;;;16.40;99.90;;;;;;5135114;27;20149;-75
2023/08/22 04:00:36;;;;;;;6.22;5.63;;;16.30;99.90;;;;;;5135388;27;20055;-74
2023/08/22 04:03:03;;;;;;;5.70;4.60;;;16.30;99.90;;;;;;5117215;27;20092;-75
2023/08/22 04:05:28;;;;;;;6.53;5.45;;;16.30;99.90;;;;;;5135201;27;20089;-74
2023/08/22 04:07:55;;;;;;;11.95;6.20;;;16.20;99.90;;;;;;5135584;27;20048;-73
2023/08/22 04:10:21;;;;;;;6.35;5.70;;;16.10;99.90;;;;;;5135573;27;20058;-74
2023/08/22 04:12:46;;;;;;;6.30;5.28;;;16.10;99.90;;;;;;5135491;27;20063;-73
2023/08/22 04:15:13;;;;;;;6.32;5.35;;;16.10;99.90;;;;;;5135066;27;20134;-73
2023/08/22 04:17:42;;;;;;;5.93;5.10;;;16.00;99.90;;;;;;5134723;27;20080;-73
2023/08/22 04:20:12;;;;;;;6.70;5.10;;;16.00;99.90;;;;;;5134878;27;20513;-74
2023/08/22 04:22:42;;;;;;;6.25;5.57;;;15.90;99.90;;;;;;5116954;27;20047;-74
2023/08/22 04:25:09;;;;;;;6.95;6.20;;;15.90;99.90;;;;;;5135485;27;20058;-74
2023/08/22 04:27:35;;;;;;;6.38;5.88;;;15.80;99.90;;;;;;5134793;27;20039;-74
2023/08/22 04:30:01;;;;;;;6.80;5.85;;;15.80;99.90;;;;;;5134770;27;20043;-73
2023/08/22 04:32:27;;;;;;;8.07;5.93;;;15.70;99.90;;;;;;5134441;27;20492;-74
2023/08/22 04:34:53;;;;;;;10.73;5.60;;;15.80;99.90;;;;;;5134607;27;20050;-74
2023/08/22 04:37:19;;;;;;;6.63;5.90;;;15.80;99.90;;;;;;5116655;27;20058;-74
2023/08/22 04:39:44;;;;;;;8.07;5.78;;;15.70;99.90;;;;;;5116249;27;20035;-77
2023/08/22 04:42:10;;;;;;;7.93;5.20;;;15.70;99.90;;;;;;5134553;27;20039;-74
2023/08/22 04:44:36;;;;;;;5.47;4.38;;;15.70;99.90;;;;;;5134638;27;20082;-85
2023/08/22 04:47:01;;;;;;;4.65;4.25;;;15.70;99.90;;;;;;5134725;27;20502;-85
2023/08/22 04:49:27;;;;;;;7.60;5.50;;;15.70;99.90;;;;;;5134591;27;20049;-85
2023/08/22 04:51:53;;;;;;;6.68;5.80;;;15.70;99.90;;;;;;5117090;27;20100;-84
2023/08/22 04:54:18;;;;;;;9.05;6.65;;;15.80;99.90;;;;;;5134423;27;20140;-85
2023/08/22 04:56:44;;;;;;;6.20;5.10;;;15.80;99.90;;;;;;5099565;27;20051;-84
2023/08/22 04:59:10;;;;;;;7.78;5.57;;;15.80;99.90;;;;;;5133974;27;20101;-84
2023/08/22 05:01:36;;;;;;;8.43;5.95;;;15.80;99.90;;;;;;5134323;27;20058;-85
2023/08/22 05:04:02;;;;;;;6.68;4.43;;;15.80;99.90;;;;;;5116284;27;20131;-82
2023/08/22 05:06:27;;;;;;;7.32;5.13;;;15.80;99.90;;;;;;5116169;27;20168;-85
2023/08/22 05:08:53;;;;;;;7.03;5.05;;;15.90;99.90;;;;;;5116659;27;20096;-82
2023/08/22 05:11:19;;;;;;;7.78;5.38;;;15.90;99.90;;;;;;5116140;27;20133;-82
2023/08/22 05:13:45;;;;;;;7.55;6.25;;;16.00;99.90;;;;;;5116120;27;20055;-82
2023/08/22 05:16:10;;;;;;;5.32;4.78;;;16.00;99.90;;;;;;5116266;27;20046;-83
2023/08/22 05:18:36;;;;;;;6.00;5.40;;;16.00;99.90;;;;;;5116083;27;20491;-82
2023/08/22 05:21:02;;;;;;;7.45;5.68;;;16.00;99.90;;;;;;5116025;27;20471;-84
2023/08/22 05:23:28;;;;;;;6.22;5.63;;;16.00;99.90;;;;;;5115962;27;20116;-84
2023/08/22 05:25:54;;;;;;;10.18;6.47;;;16.10;99.90;;;;;;5115954;27;20039;-85
2023/08/22 05:28:20;;;;;;;7.65;5.93;;;16.10;99.90;;;;;;5133131;27;20051;-84
2023/08/22 05:30:45;;;;;;;6.60;5.70;;;16.10;99.90;;;;;;5133860;27;20066;-84
2023/08/22 05:33:11;;;;;;;5.60;4.93;;;16.10;99.90;;;;;;5133558;27;20051;-85
2023/08/22 05:35:37;;;;;;;6.45;5.40;;;16.10;99.90;;;;;;5133779;27;20100;-85
2023/08/22 05:38:03;;;;;;;5.63;5.10;;;16.20;99.90;;;;;;5133608;27;20050;-85
2023/08/22 05:40:29;;;;;;;7.20;5.32;;;16.30;99.90;;;;;;5115300;28;20046;-84
2023/08/22 05:42:55;;;;;;;6.57;5.35;;;16.30;99.90;;;;;;5115462;27;20054;-84
2023/08/22 05:45:21;;;;;;;12.15;6.82;;;16.50;99.90;;;;;;5133523;27;20054;-86
2023/08/22 05:47:47;;;;;;;6.90;5.68;;;16.60;99.90;;;;;;5133331;27;20042;-84
2023/08/22 05:50:13;;;;;;;7.97;6.50;;;16.70;99.90;;;;;;5115132;28;20525;-84
2023/08/22 05:52:38;;;;;;;9.13;6.15;;;16.80;99.90;;;;;;5133434;28;20051;-84
2023/08/22 05:55:06;;;;;;;8.07;6.60;;;16.90;99.90;;;;;;5133419;28;20051;-84
2023/08/22 05:57:31;;;;;;;7.65;6.85;;;17.00;99.90;;;;;;5133218;28;20444;-84
2023/08/22 05:59:57;;;;;;;8.10;6.18;;;17.10;99.90;;;;;;5133638;28;20054;-84
2023/08/22 06:02:23;;;;;;;8.20;6.63;;;17.20;99.90;;;;;;5133348;28;20432;-85
2023/08/22 06:04:49;;;;;;;9.25;7.53;;;16.40;99.90;;;;;;5115495;28;20254;-84
2023/08/22 06:07:14;;;;;;;11.95;7.20;;;17.50;99.90;;;;;;5133351;28;20093;-84
2023/08/22 06:09:40;;;;;;;8.90;6.50;;;17.60;99.90;;;;;;5133323;28;20057;-84
2023/08/22 06:12:07;;;;;;;11.07;7.43;;;17.80;99.90;;;;;;5133783;28;20047;-84
2023/08/22 06:14:33;;;;;;;10.70;8.10;;;17.90;99.90;;;;;;5134209;28;20122;-84
2023/08/22 06:16:58;;;;;;;8.63;7.57;;;18.00;99.90;;;;;;5115591;28;20123;-83
2023/08/22 06:19:24;;;;;;;9.23;6.93;;;18.20;99.90;;;;;;5133831;28;20039;-84
2023/08/22 06:21:50;;;;;;;8.60;7.47;;;18.30;99.90;;;;;;5115698;28;20043;-83
2023/08/22 06:24:16;;;;;;;11.18;8.10;;;18.40;99.90;;;;;;5133551;28;20050;-82
2023/08/22 06:26:42;;;;;;;9.60;7.55;;;18.50;99.90;;;;;;5133286;28;20075;-85
2023/08/22 06:29:08;;;;;;;10.63;7.18;;;18.50;99.90;;;;;;5134012;28;20047;-86
2023/08/22 06:31:34;;;;;;;10.43;7.03;;;18.50;99.90;;;;;;5133996;28;20491;-84
2023/08/22 06:34:00;;;;;;;13.27;7.43;;;18.50;99.90;;;;;;5133921;28;20047;-84
2023/08/22 06:36:26;;;;;;;8.98;7.28;;;18.60;99.90;;;;;;5115767;28;20054;-87
2023/08/22 06:38:52;;;;;;;13.52;7.57;;;18.60;99.90;;;;;;5152081;27;20039;-83
2023/08/22 06:41:18;;;;;;;12.07;7.55;;;18.70;99.90;;;;;;5150130;27;20061;-82
2023/08/22 06:43:44;;;;;;;10.75;7.47;;;18.70;99.90;;;;;;5138080;27;20049;-80
2023/08/22 06:46:10;;;;;;;8.13;7.30;;;18.80;99.90;;;;;;5137583;27;20118;-84
2023/08/22 06:48:36;;;;;;;13.13;7.95;;;18.90;99.90;;;;;;5137033;27;20552;-84
2023/08/22 06:51:02;;;;;;;10.95;8.65;;;19.00;99.90;;;;;;5137028;27;20122;-81
2023/08/22 06:53:27;;;;;;;12.07;7.47;;;19.20;99.90;;;;;;5137022;27;20092;-83
2023/08/22 06:55:55;;;;;;;8.70;7.25;;;19.40;99.90;;;;;;5136603;27;20080;-83
2023/08/22 06:58:20;;;;;;;9.05;6.95;;;19.70;99.90;;;;;;5118211;27;20050;-84
2023/08/22 07:00:46;;;;;;;12.93;7.20;;;19.90;99.90;;;;;;5136895;27;20054;-84
2023/08/22 07:03:12;;;;;;;12.60;6.90;;;20.10;99.90;;;;;;5136998;27;20070;-83
2023/08/22 07:05:38;;;;;;;7.20;5.93;;;20.40;99.90;;;;;;5136683;27;20039;-84
2023/08/22 07:08:04;;;;;;;8.40;6.05;;;20.90;99.90;;;;;;5136756;27;20434;-83
2023/08/22 07:10:30;;;;;;;8.23;5.10;;;21.50;99.90;;;;;;5136334;27;20498;-84
2023/08/22 07:12:55;;;;;;;7.22;4.57;;;22.10;99.90;;;;;;5136177;27;20047;-85
2023/08/22 07:15:21;;;;;;;5.50;4.35;;;22.50;99.90;;;;;;5118604;27;20087;-84
2023/08/22 07:17:47;;;;;;;5.20;4.50;;;23.00;99.90;;;;;;5118019;27;20039;-85
2023/08/22 07:20:13;;;;;;;6.40;4.15;;;23.60;99.90;;;;;;5136048;27;20043;-84
2023/08/22 07:22:39;;;;;;;6.13;4.72;;;24.20;99.90;;;;;;5136238;27;20039;-86
2023/08/22 07:25:05;;;;;;;6.65;4.68;;;24.60;99.90;;;;;;5136307;27;20043;-86
2023/08/22 07:27:31;;;;;;;7.03;4.20;;;24.70;99.90;;;;;;5136310;27;20039;-85
2023/08/22 07:29:57;;;;;;;6.88;4.53;;;25.20;99.90;;;;;;5136828;27;20042;-86
2023/08/22 07:32:23;;;;;;;7.32;4.40;;;25.80;99.90;;;;;;5136359;27;20039;-86
2023/08/22 07:34:48;;;;;;;7.13;3.75;;;26.50;99.90;;;;;;5136615;27;20371;-86
2023/08/22 07:37:15;;;;;;;8.93;4.18;;;26.70;99.90;;;;;;5148666;27;20047;-85
2023/08/22 07:39:41;;;;;;;8.65;3.53;;;27.00;99.90;;;;;;5135111;27;20039;-86
2023/08/22 07:42:08;;;;;;;4.38;3.15;;;27.20;99.90;;;;;;5148851;27;20047;-85
2023/08/22 07:44:35;;;;;;;5.10;3.58;;;27.00;99.90;;;;;;5128565;27;20047;-86
2023/08/22 07:47:02;;;;;;;4.03;2.97;;;26.60;99.90;;;;;;5128331;27;20117;-85
2023/08/22 07:49:27;;;;;;;5.15;3.47;;;26.60;99.90;;;;;;5123349;27;20461;-85
2023/08/22 07:51:53;;;;;;;4.20;3.17;;;26.50;99.90;;;;;;5137267;27;20070;-85
2023/08/22 07:54:19;;;;;;;6.22;3.63;;;26.40;99.90;;;;;;5139217;27;20079;-86
2023/08/22 07:56:45;;;;;;;3.63;2.75;;;26.50;99.70;;;;;;5104747;27;20047;-86
2023/08/22 07:59:14;;;;;;;5.30;3.00;;;26.40;99.40;;;;;;5135985;27;20065;-87
2023/08/22 08:01:41;;;;;;;5.60;3.20;;;26.50;97.50;;;;;;5136267;27;20130;-86
2023/08/22 08:04:08;;;;;;;3.47;2.80;;;;;;;;;;5135884;27;20050;-86
2023/08/22 08:06:35;;;;;;;5.40;2.70;;;25.80;97.30;;;;;;5135604;27;20101;-86
2023/08/22 08:09:01;;;;;;;3.80;2.63;;;;;;;;;;5135522;27;20078;-85
2023/08/22 08:11:31;;;;;;;4.05;2.65;;;25.80;99.30;;;;;;5135422;27;20425;-86
2023/08/22 08:13:57;;;;;;;3.47;2.72;;;;;;;;;;5135110;27;20039;-86
2023/08/22 08:16:24;;;;;;;4.10;3.05;;;;;;;;;;5117105;27;20135;-86
2023/08/22 08:18:52;;;;;;;3.55;2.60;;;27.00;99.90;;;;;;5134628;27;20049;-87
2023/08/22 08:21:19;;;;;;;4.20;2.95;;;26.70;98.60;;;;;;5135024;27;20042;-86
2023/08/22 08:23:44;;;;;;;3.55;2.40;;;26.90;98.80;;;;;;5135080;27;20074;-86
2023/08/22 08:26:14;;;;;;;3.13;2.47;;;26.80;98.20;;;;;;5135689;27;20050;-86
2023/08/22 08:28:40;;;;;;;4.80;2.70;;;26.40;98.10;;;;;;5134899;27;20050;-86
2023/08/22 08:31:06;;;;;;;3.42;2.78;;;26.10;98.40;;;;;;5134778;27;20043;-86
2023/08/22 08:33:32;;;;;;;5.10;3.03;;;26.30;98.60;;;;;;5134911;27;20103;-88
2023/08/22 08:35:58;;;;;;;4.70;2.53;;;27.20;98.30;;;;;;5134829;27;20047;-86
2023/08/22 08:38:24;;;;;;;6.07;2.78;;;27.50;97.90;;;;;;5135283;27;20142;-85
2023/08/22 08:40:52;;;;;;;4.53;3.55;;;27.70;97.70;;;;;;5135002;27;20122;-85
2023/08/22 08:43:21;;;;;;;6.68;3.08;;;28.10;97.10;;;;;;5135149;27;20043;-85
2023/08/22 08:45:51;;;;;;;6.82;3.42;;;28.30;96.60;;;;;;5134609;27;20049;-85
2023/08/22 08:48:18;;;;;;;5.75;3.40;;;28.60;96.80;;;;;;5134240;27;20440;-86
2023/08/22 08:50:44;;;;;;;2.78;2.47;;;29.00;96.20;;;;;;5134580;27;20088;-86
2023/08/22 08:53:11;;;;;;;4.53;2.35;;;29.60;95.80;;;;;;5134445;27;20078;-86
2023/08/22 08:55:40;;;;;;;3.22;2.42;;;29.40;94.80;;;;;;5134330;27;20051;-86
2023/08/22 08:58:07;;;;;;;5.82;2.55;;;28.80;93.10;;;;;;5134232;27;20175;-86
2023/08/22 09:00:33;;;;;;;4.07;1.77;;;28.80;94.60;;;;;;5115572;27;20408;-86
2023/08/22 09:02:59;;;;;;;4.25;2.00;;;28.90;94.60;;;;;;5134513;27;20051;-85
2023/08/22 09:05:28;;;;;;;5.55;1.98;;;29.80;94.20;;;;;;5115715;27;20147;-86
2023/08/22 09:07:53;;;;;;;2.08;1.90;;;30.40;93.50;;;;;;5116193;27;20050;-86
2023/08/22 09:10:35;;;;;;;4.10;2.35;;;30.90;93.20;;;;;;5133972;27;20039;-86
2023/08/22 09:13:04;;;;;;;4.53;2.07;;;30.90;90.60;;;;;;5116547;27;20058;-85
2023/08/22 09:15:30;;;;;;;1.80;1.23;;;31.10;92.20;;;;;;5133879;27;20050;-86
2023/08/22 09:17:57;;;;;;;3.55;1.73;;;31.40;92.00;;;;;;5134006;27;20083;-86
2023/08/22 09:20:23;;;;;;;3.78;1.60;;;31.60;91.30;;;;;;5134172;27;20062;-86
2023/08/22 09:22:49;;;;;;;2.30;0.93;;;31.60;91.10;;;;;;5133575;27;20476;-86
2023/08/22 09:25:16;;;;;;;1.98;0.93;;;31.90;90.50;;;;;;5134181;27;20046;-87
2023/08/22 09:27:42;;;;;;;1.27;1.02;;;32.00;89.10;;;;;;5134457;27;20054;-87
2023/08/22 09:30:08;;;;;;;1.50;1.05;;;32.10;88.80;;;;;;5134153;27;20051;-87
2023/08/22 09:32:33;;;;;;;1.55;1.17;;;31.80;87.80;;;;;;5133741;27;20100;-86
2023/08/22 09:35:01;;;;;;;1.92;1.10;;;31.30;87.30;;;;;;5115661;27;20043;-86
2023/08/22 09:37:37;;;;;;;2.35;1.20;;;31.50;87.90;;;;;;5133715;27;20520;-86
2023/08/22 09:40:09;;;;;;;1.48;0.80;;;31.60;83.50;;;;;;5115114;27;20480;-86
2023/08/22 09:42:39;;;;;;;2.90;0.90;;;31.60;83.50;;;;;;5134047;27;20047;-86
2023/08/22 09:45:05;;;;;;;1.90;1.20;;;31.00;85.10;;;;;;5133643;27;20038;-86
2023/08/22 09:47:31;;;;;;;2.10;1.13;;;30.60;85.60;;;;;;5133787;27;20047;-86
2023/08/22 09:50:04;;;;;;;2.17;1.13;;;30.00;85.90;;;;;;5133803;27;20469;-85
2023/08/22 09:52:31;;;;;;;1.88;1.30;;;29.80;85.00;;;;;;5133999;27;20050;-86
2023/08/22 09:54:57;;;;;;;1.48;1.17;;;30.20;87.20;;;;;;5133631;27;20082;-86
2023/08/22 09:57:27;;;;;;;3.13;1.80;;;30.20;86.70;;;;;;5133443;28;20043;-87
2023/08/22 09:59:53;;;;;;;1.65;1.27;;;30.00;86.40;;;;;;5133276;28;20118;-86
2023/08/22 10:02:19;;;;;;;1.65;1.25;;;30.30;87.50;;;;;;5133493;28;20082;-86
2023/08/22 10:04:46;;;;;;;2.22;1.20;;;31.00;87.50;;;;;;5133363;28;20114;-87
2023/08/22 10:07:13;;;;;;;2.33;1.08;;;31.50;86.30;;;;;;5133795;28;20085;-87
2023/08/22 10:09:39;;;;;;;4.40;1.35;;;31.30;86.00;;;;;;5133248;28;20043;-85
2023/08/22 10:12:08;;;;;;;1.98;1.08;;;31.30;86.90;;;;;;5114865;28;20089;-87
2023/08/22 10:14:56;;;;;;;3.33;1.58;;;31.10;86.20;;;;;;5116148;27;20046;-88
2023/08/22 10:17:26;;;;;;;1.40;1.13;;;30.70;83.50;;;;;;5137889;27;20043;-86
2023/08/22 10:19:52;;;;;;;2.33;1.15;;;29.80;85.40;;;;;;5137088;27;20491;-87
2023/08/22 10:22:19;;;;;;;1.98;1.55;;;29.40;86.40;;;;;;5119763;27;20043;-88
2023/08/22 10:24:48;;;;;;;3.22;1.77;;;29.80;87.20;;;;;;5137000;27;20415;-88
2023/08/22 10:27:17;;;;;;;3.70;1.70;;;30.40;87.10;;;;;;5119083;27;20164;-85
2023/08/22 10:29:46;;;;;;;2.95;1.75;;;30.70;86.00;;;;;;5137822;27;20047;-82
2023/08/22 10:32:12;;;;;;;2.47;1.50;;;30.40;86.60;;;;;;5137381;27;20467;-82
2023/08/22 10:34:37;;;;;;;2.75;2.17;;;29.80;86.40;;;;;;5119930;27;20068;-82
2023/08/22 10:37:17;;;;;;;2.10;2.00;;;30.30;87.40;;;;;;5102681;27;20417;-82
2023/08/22 10:39:48;;;;;;;4.22;2.13;;;31.20;87.10;;;;;;5137099;27;20043;-84
2023/08/22 10:42:18;;;;;;;3.93;2.57;;;31.40;87.40;;;;;;5137093;27;20035;-86
2023/08/22 10:44:58;;;;;;;4.15;2.60;;;31.20;87.50;;;;;;5101747;27;20323;-84
2023/08/22 10:47:25;;;;;;;5.13;3.08;;;31.20;84.90;;;;;;5137456;27;20057;-83
2023/08/22 10:49:55;;;;;;;6.25;3.42;;;30.70;87.90;;;;;;5136642;27;20046;-83
2023/08/22 10:52:36;;;;;;;7.05;2.75;;;30.50;88.20;;;;;;5119307;27;20042;-87
2023/08/22 10:55:11;;;;;;;3.75;3.28;;;30.60;88.90;;;;;;5118924;27;20536;-84
2023/08/22 10:57:40;;;;;;;6.18;3.67;;;30.50;88.70;;;;;;5118389;27;20043;-85
2023/08/22 11:00:14;;;;;;;5.03;3.95;;;29.90;89.30;;;;;;5117882;27;20054;-84
2023/08/22 11:02:44;;;;;;;7.47;4.00;;;29.30;88.20;;;;;;5137253;27;20053;-84
2023/08/22 11:05:11;;;;;;;4.10;3.70;;;28.80;89.70;;;;;;5118641;27;20531;-82
2023/08/22 11:07:42;;;;;;;5.05;3.70;;;28.40;90.30;;;;;;5136379;27;20488;-80
2023/08/22 11:10:11;;;;;;;3.90;2.88;;;28.30;90.50;;;;;;5118862;27;20044;-85
2023/08/22 11:12:38;;;;;;;5.95;3.83;;;28.20;90.30;;;;;;5118345;27;20130;-81
2023/08/22 11:15:04;;;;;;;5.68;3.70;;;28.30;90.20;;;;;;5136328;27;20382;-81
2023/08/22 11:17:30;;;;;;;3.92;3.15;;;28.10;89.10;;;;;;5136587;27;20054;-85
2023/08/22 11:19:59;;;;;;;5.57;3.15;;;28.00;89.50;;;;;;5084219;27;20122;-85
2023/08/22 11:22:25;;;;;;;3.88;3.33;;;28.00;90.00;;;;;;5136174;27;20031;-82
2023/08/22 11:24:51;;;;;;;5.13;3.03;;;28.10;90.10;;;;;;5117940;27;20059;-85
2023/08/22 11:27:18;;;;;;;5.13;2.58;;;28.00;89.70;;;;;;5117076;27;20043;-82
2023/08/22 11:29:45;;;;;;;3.97;2.30;;;28.00;89.40;;;;;;5118077;27;20058;-84
2023/08/22 11:32:23;;;;;;;3.25;2.25;;;28.00;89.20;;;;;;5136364;27;20471;-82
2023/08/22 11:35:01;;;;;;;4.03;2.10;;;28.10;89.80;;;;;;5101358;27;20088;-84
2023/08/22 11:37:27;;;;;;;3.20;2.47;;;28.10;89.20;;;;;;5137009;27;20467;-85
2023/08/22 11:39:57;;;;;;;2.90;2.28;;;28.00;88.80;;;;;;5137264;27;20095;-83
2023/08/22 11:42:27;;;;;;;3.97;2.10;;;27.90;88.60;;;;;;5137281;27;20045;-86
2023/08/22 11:45:22;;;;;;;4.25;1.83;;;27.90;88.70;;;;;;5117890;27;20504;-80
2023/08/22 11:47:50;;;;;;;2.53;1.80;;;27.90;89.70;;;;;;5115581;27;20087;-90
2023/08/22 11:50:20;;;;;;;4.32;1.90;;;27.90;89.50;;;;;;5135953;27;20047;-84
2023/08/22 11:52:51;;;;;;;2.83;1.80;;;28.00;90.00;;;;;;5136453;27;20083;-86
2023/08/22 11:55:25;;;;;;;3.30;2.03;;;28.00;90.10;;;;;;5137419;27;20049;-81
2023/08/22 11:57:55;;;;;;;3.38;2.00;;;28.10;89.80;;;;;;5136494;27;20055;-84
2023/08/22 12:00:21;;;;;;;1.67;1.58;;;28.10;90.30;;;;;;5136091;27;20059;-87
2023/08/22 12:02:51;;;;;;;3.40;1.70;;;28.20;90.00;;;;;;5117745;27;20454;-84
2023/08/22 12:05:30;;;;;;;2.30;1.63;;;28.20;90.10;;;;;;5135214;27;20396;-82
2023/08/22 12:08:15;;;;;;;1.98;1.52;;;28.20;90.10;;;;;;5135325;27;20051;-86
2023/08/22 12:10:43;;;;;;;1.65;1.10;;;28.10;89.30;;;;;;5117513;27;20126;-88
2023/08/22 12:13:10;;;;;;;1.23;1.10;;;28.00;89.40;;;;;;5135266;27;20199;-84
2023/08/22 12:15:36;;;;;;;0.98;0.88;;;28.00;89.10;;;;;;5135260;27;20051;-84
2023/08/22 12:18:04;;;;;;;2.35;1.10;;;28.10;90.00;;;;;;5135465;27;20043;-86
2023/08/22 12:20:30;;;;;;;0.82;0.82;;;28.20;89.60;;;;;;5134959;27;20086;-82
2023/08/22 12:22:56;;;;;;;1.48;1.00;;;28.20;89.60;;;;;;5135051;27;20129;-87
2023/08/22 12:25:22;;;;;;;1.77;0.95;;;28.00;88.70;;;;;;5135224;27;20082;-82
2023/08/22 12:27:47;;;;;;;1.40;1.00;;;28.00;88.60;;;;;;5134923;27;20043;-85
2023/08/22 12:30:13;;;;;;;1.42;1.05;;;28.10;89.20;;;;;;5117347;27;20463;-84
2023/08/22 12:32:43;;;;;;;1.05;0.90;;;28.20;89.90;;;;;;5134951;27;20050;-85
2023/08/22 12:35:10;;;;;;;1.65;1.20;;;28.00;89.20;;;;;;5134809;27;20050;-86
2023/08/22 12:37:39;;;;;;;3.80;1.05;;;28.10;89.10;;;;;;5116257;27;20058;-85
2023/08/22 12:40:10;;;;;;;0.80;0.80;;;27.90;89.10;;;;;;5116159;27;20401;-88
2023/08/22 12:42:37;;;;;;;1.55;1.02;;;27.90;89.20;;;;;;5134979;27;20054;-80
2023/08/22 12:45:03;;;;;;;1.98;1.15;;;27.90;88.70;;;;;;5134679;27;20043;-84
2023/08/22 12:47:31;;;;;;;3.55;1.25;;;28.10;88.30;;;;;;5135000;27;20072;-83